Time;durP1;ratioP1;P1;durP2;ratioP2;P2;SDS_P1;SDS_P2;PMS_P1;PMS_P2;Temp;Humidity;BMP_temperature;BMP_pressure;BME280_temperature;BME280_humidity;BME280_pressure;Samples;Min_cycle;Max_cycle;Signal;HPM_P1;HPM_P2
2022/06/15 00:03:11;;;;;;;7.00;3.47;;;;;;;7.73;100.00;97050.13;10375832;28;20247;-54
2022/06/15 00:08:12;;;;;;;5.67;3.07;;;;;;;7.63;100.00;97053.50;10375681;28;20224;-54
2022/06/15 00:13:12;;;;;;;6.03;3.30;;;;;;;7.64;100.00;97046.50;10374417;28;20228;-50
2022/06/15 00:18:12;;;;;;;4.43;2.43;;;;;;;7.64;100.00;97046.50;10375245;28;20761;-52
2022/06/15 00:23:13;;;;;;;7.43;3.47;;;;;;;7.56;100.00;97041.13;10374972;28;20554;-54
2022/06/15 00:28:13;;;;;;;9.57;3.50;;;;;;;7.48;100.00;97033.94;10374765;28;20205;-52
2022/06/15 00:33:13;;;;;;;4.40;3.07;;;;;;;7.42;100.00;97035.28;10373716;28;20228;-50
2022/06/15 00:38:15;;;;;;;5.43;3.07;;;;;;;7.44;100.00;97038.59;10372993;28;20722;-54
2022/06/15 00:43:35;;;;;;;7.67;2.87;;;;;;;7.40;100.00;97025.97;10374371;28;20177;-51
2022/06/15 00:48:36;;;;;;;5.20;3.03;;;;;;;7.34;100.00;97026.47;10372893;28;20215;-51
2022/06/15 00:53:37;;;;;;;3.90;2.83;;;;;;;7.23;100.00;97027.34;10372781;28;20229;-51
2022/06/15 00:58:39;;;;;;;9.03;3.00;;;;;;;7.25;100.00;97036.69;10372219;28;20213;-49
2022/06/15 01:03:39;;;;;;;7.03;2.73;;;;;;;7.31;100.00;97023.16;10371809;28;20193;-51
2022/06/15 01:08:59;;;;;;;9.30;3.33;;;;;;;7.36;100.00;97021.94;10373361;28;20217;-49
2022/06/15 01:14:04;;;;;;;7.63;2.90;;;;;;;7.24;100.00;97026.41;10371841;28;20259;-52
2022/06/15 01:19:18;;;;;;;8.10;3.00;;;;;;;7.22;100.00;97015.28;10372951;28;20212;-49
2022/06/15 01:24:42;;;;;;;4.47;2.83;;;;;;;7.15;100.00;97017.56;10371358;28;20188;-49
2022/06/15 01:29:54;;;;;;;5.87;2.70;;;;;;;7.20;100.00;97017.16;10355076;28;20216;-49
2022/06/15 01:35:08;;;;;;;4.83;2.80;;;;;;;7.18;100.00;97012.09;10372171;28;20223;-53
2022/06/15 01:40:33;;;;;;;5.87;2.73;;;;;;;7.04;100.00;97009.81;10354313;28;20251;-53
2022/06/15 01:45:35;;;;;;;3.47;2.70;;;;;;;7.04;100.00;97004.59;10354366;28;20182;-51
2022/06/15 01:50:39;;;;;;;6.40;2.80;;;;;;;7.07;100.00;96999.97;10354063;28;20704;-51
2022/06/15 01:55:46;;;;;;;6.27;2.83;;;;;;;7.05;100.00;96991.44;10370398;28;20217;-50
2022/06/15 02:00:53;;;;;;;5.97;2.70;;;;;;;7.08;100.00;96993.81;10353782;28;20654;-49
2022/06/15 02:06:00;;;;;;;7.87;3.23;;;;;;;6.98;100.00;96992.91;10353624;28;20185;-54
2022/06/15 02:11:23;;;;;;;4.17;2.90;;;;;;;6.98;100.00;96990.31;10369437;28;20798;-50
2022/06/15 02:16:29;;;;;;;7.60;3.10;;;;;;;6.89;100.00;96984.09;10353154;28;20594;-49
2022/06/15 02:21:30;;;;;;;5.33;3.10;;;;;;;6.79;100.00;96975.38;10352701;28;20208;-54
2022/06/15 02:26:33;;;;;;;5.33;2.97;;;;;;;6.81;100.00;96970.88;10369477;28;20199;-49
2022/06/15 02:31:36;;;;;;;4.53;3.13;;;;;;;6.75;100.00;96980.03;10352820;28;20205;-55
2022/06/15 02:36:36;;;;;;;7.27;3.33;;;;;;;6.79;100.00;96971.00;10370387;28;20579;-49
2022/06/15 02:41:38;;;;;;;7.93;3.77;;;;;;;6.70;100.00;96966.53;10368709;28;20245;-49
2022/06/15 02:46:44;;;;;;;5.83;3.03;;;;;;;6.81;100.00;96967.44;10368735;28;20196;-49
2022/06/15 02:51:57;;;;;;;5.33;3.37;;;;;;;7.05;100.00;96960.19;10352611;28;20688;-50
2022/06/15 02:56:57;;;;;;;6.47;3.10;;;;;;;7.55;100.00;96956.03;10369124;28;20197;-50
2022/06/15 03:01:58;;;;;;;4.70;2.80;;;;;;;8.02;100.00;96951.09;10368175;28;20278;-49
2022/06/15 03:07:00;;;;;;;8.93;2.73;;;;;;;8.57;100.00;96938.41;10343724;28;20369;-49
2022/06/15 03:12:01;;;;;;;4.57;2.60;;;;;;;8.68;100.00;96937.44;10327555;28;20728;-50
2022/06/15 03:17:07;;;;;;;5.80;2.70;;;;;;;8.96;100.00;96934.06;10327507;28;20213;-49
2022/06/15 03:22:26;;;;;;;5.17;2.13;;;;;;;9.31;100.00;96927.38;10328319;28;20194;-50
2022/06/15 03:27:31;;;;;;;4.70;2.20;;;;;;;9.51;100.00;96928.97;10335516;28;20206;-50
2022/06/15 03:32:35;;;;;;;9.27;2.20;;;;;;;9.59;98.94;96920.41;10335486;28;20232;-51
2022/06/15 03:37:38;;;;;;;6.83;2.00;;;;;;;9.90;96.73;96910.44;10334966;28;20717;-50
2022/06/15 03:42:58;;;;;;;5.33;2.30;;;;;;;10.09;94.26;96908.66;10351416;28;20867;-50
2022/06/15 03:48:00;;;;;;;3.10;1.70;;;;;;;10.14;94.11;96915.09;10334648;28;20301;-49
2022/06/15 03:53:01;;;;;;;5.13;2.00;;;;;;;10.26;93.15;96902.63;10334652;28;20226;-49
2022/06/15 03:58:03;;;;;;;5.33;1.87;;;;;;;10.39;91.90;96901.44;10334185;28;20209;-49
2022/06/15 04:03:05;;;;;;;5.77;1.80;;;;;;;10.59;90.83;96895.06;10334498;28;20189;-51
2022/06/15 04:08:35;;;;;;;3.70;1.93;;;;;;;10.95;88.64;96884.50;10329812;28;20640;-50
2022/06/15 04:13:39;;;;;;;4.20;1.63;;;;;;;11.37;87.00;96872.44;10334164;28;20218;-54
2022/06/15 04:18:40;;;;;;;5.40;1.40;;;;;;;11.80;84.22;96857.47;10333798;28;20735;-51
2022/06/15 04:23:48;;;;;;;3.83;1.87;;;;;;;12.12;82.04;96835.72;10333106;28;20680;-54
2022/06/15 04:28:49;;;;;;;1.70;1.50;;;;;;;12.49;80.29;96830.97;10334862;28;20284;-50
2022/06/15 04:33:53;;;;;;;3.72;1.92;;;;;;;12.76;79.39;96837.69;10333162;28;20310;-52
2022/06/15 04:38:56;;;;;;;4.57;1.30;;;;;;;13.12;76.85;96804.88;10332109;28;20249;-54
2022/06/15 04:43:58;;;;;;;1.92;1.38;;;;;;;13.44;75.20;96796.03;10333286;28;20182;-52
2022/06/15 04:49:00;;;;;;;4.38;1.48;;;;;;;13.72;73.51;96777.97;10332657;28;20217;-50
2022/06/15 04:54:09;;;;;;;4.90;1.50;;;;;;;14.10;71.66;96774.56;10332522;28;20245;-49
2022/06/15 04:59:13;;;;;;;3.53;1.40;;;;;;;14.42;70.43;96768.16;10332350;28;20213;-50
2022/06/15 05:04:14;;;;;;;3.22;1.45;;;;;;;14.64;69.03;96752.53;10332186;28;20213;-50
2022/06/15 05:09:14;;;;;;;1.90;1.45;;;;;;;14.94;67.24;96734.03;10333253;28;20276;-53
2022/06/15 05:14:17;;;;;;;3.15;1.40;;;;;;;15.17;66.66;96723.38;10331948;28;20225;-50
2022/06/15 05:19:20;;;;;;;4.07;1.30;;;;;;;15.42;65.64;96713.31;10332454;28;20202;-50
2022/06/15 05:24:21;;;;;;;5.68;1.30;;;;;;;15.62;64.48;96697.66;10331212;28;20217;-51
2022/06/15 05:29:27;;;;;;;5.95;1.42;;;;;;;15.94;64.85;96719.31;10331161;28;20210;-50
2022/06/15 05:34:33;;;;;;;4.53;1.50;;;;;;;16.24;63.33;96700.63;10330809;28;20248;-50
2022/06/15 05:39:33;;;;;;;4.78;1.40;;;;;;;16.58;61.35;96669.91;10330586;28;20662;-54
2022/06/15 05:44:43;;;;;;;3.42;1.20;;;;;;;16.66;60.95;96669.78;10330599;28;20196;-50
2022/06/15 05:49:43;;;;;;;4.03;1.30;;;;;;;16.99;60.13;96663.03;10330192;28;20206;-51
2022/06/15 05:54:45;;;;;;;2.08;1.27;;;;;;;17.17;59.19;96654.53;10341328;28;20695;-51
2022/06/15 05:59:46;;;;;;;5.13;1.65;;;;;;;17.42;59.78;96670.66;10360824;28;20217;-50
2022/06/15 06:04:46;;;;;;;2.47;1.27;;;;;;;17.67;58.72;96652.34;10364995;28;20177;-51
2022/06/15 06:09:47;;;;;;;3.45;1.52;;;;;;;17.97;57.92;96646.69;10371476;28;20209;-51
2022/06/15 06:14:50;;;;;;;2.53;1.10;;;;;;;18.19;56.50;96626.06;10371265;28;20217;-51
2022/06/15 06:19:51;;;;;;;7.75;1.40;;;;;;;18.74;56.96;96657.53;10371021;28;20220;-52
2022/06/15 06:24:51;;;;;;;3.08;1.10;;;;;;;19.17;55.66;96635.75;10370640;28;20244;-51
2022/06/15 06:29:52;;;;;;;4.35;1.25;;;;;;;20.48;53.24;96619.16;10370944;28;20562;-51
2022/06/15 06:34:55;;;;;;;2.03;0.82;;;;;;;21.17;52.61;96637.59;10370612;28;20579;-52
2022/06/15 06:39:56;;;;;;;2.67;1.40;;;;;;;21.79;52.91;96658.66;10370490;28;20704;-51
2022/06/15 06:44:56;;;;;;;3.40;1.23;;;;;;;23.21;50.11;96636.38;10366017;28;20206;-54
2022/06/15 06:49:57;;;;;;;5.80;1.88;;;;;;;23.30;48.06;96578.81;10368163;28;20255;-53
2022/06/15 06:54:57;;;;;;;3.03;1.30;;;;;;;22.73;50.89;96651.72;10368704;28;20232;-55
2022/06/15 06:59:57;;;;;;;3.70;1.42;;;;;;;23.21;49.44;96639.03;10368330;28;20275;-59
2022/06/15 07:04:58;;;;;;;6.87;1.67;;;;;;;23.18;49.72;96639.53;10368770;28;20191;-55
2022/06/15 07:09:58;;;;;;;3.30;1.40;;;;;;;22.56;50.54;96639.09;10396726;28;20463;-54
2022/06/15 07:14:58;;;;;;;3.58;1.40;;;;;;;23.48;48.17;96620.56;10408781;28;20570;-59
2022/06/15 07:19:59;;;;;;;5.85;1.40;;;;;;;24.82;46.50;96601.91;10408480;28;20220;-53
2022/06/15 07:24:59;;;;;;;4.97;1.23;;;;;;;24.76;45.75;96568.06;10408576;28;20612;-55
2022/06/15 07:30:02;;;;;;;5.50;1.10;;;;;;;26.82;41.07;96518.56;10408636;28;20354;-58
2022/06/15 07:35:03;;;;;;;3.10;0.93;;;;;;;27.26;41.06;96507.31;10408611;28;20517;-57
2022/06/15 07:40:04;;;;;;;1.98;1.23;;;;;;;25.91;42.70;96531.28;10394754;28;20677;-56
2022/06/15 07:45:05;;;;;;;3.78;1.30;;;;;;;26.52;41.65;96530.78;10367150;28;20243;-58
2022/06/15 07:50:06;;;;;;;5.35;1.40;;;;;;;25.18;44.43;96562.06;10367017;28;20245;-57
2022/06/15 07:55:09;;;;;;;4.60;1.25;;;;;;;25.82;42.17;96530.97;10367675;28;20225;-59
2022/06/15 08:00:10;;;;;;;2.38;1.02;;;;;;;26.36;41.53;96526.44;10366633;28;20243;-57
2022/06/15 08:05:16;;;;;;;3.90;1.45;;;;;;;25.37;44.21;96572.47;10365618;28;20194;-59
2022/06/15 08:10:19;;;;;;;5.15;1.50;;;;;;;25.44;43.94;96568.50;10368531;28;20227;-57
2022/06/15 08:15:20;;;;;;;8.30;1.67;;;;;;;25.66;44.16;96572.16;10412369;28;20227;-56
2022/06/15 08:20:25;;;;;;;3.83;1.40;;;;;;;25.81;42.90;96546.25;10414289;28;20571;-53
2022/06/15 08:25:30;;;;;;;1.75;0.93;;;;;;;26.60;40.95;96524.09;10413890;28;20193;-52
2022/06/15 08:30:31;;;;;;;4.72;1.30;;;;;;;25.72;42.22;96514.78;10376885;28;20217;-56
2022/06/15 08:35:31;;;;;;;4.80;1.90;;;;;;;26.04;43.05;96544.28;10373401;28;20221;-58
2022/06/15 08:40:36;;;;;;;5.93;1.30;;;;;;;26.76;40.16;96482.78;10373378;28;20336;-54
2022/06/15 08:45:46;;;;;;;4.97;1.60;;;;;;;26.89;40.85;96502.97;10369262;28;20193;-58
2022/06/15 08:51:12;;;;;;;3.55;1.42;;;;;;;25.65;42.45;96509.63;10372054;28;20686;-54
2022/06/15 08:56:40;;;;;;;3.88;1.40;;;;;;;26.40;42.52;96549.00;10371373;28;20631;-59
2022/06/15 09:01:51;;;;;;;3.33;1.67;;;;;;;28.01;39.41;96520.22;10373024;28;20318;-55
2022/06/15 09:07:16;;;;;;;1.52;1.10;;;;;;;27.89;40.79;96541.22;10371249;28;20201;-57
2022/06/15 09:12:58;;;;;;;4.82;1.60;;;;;;;28.72;38.44;96501.34;10370607;28;20213;-55
2022/06/15 09:18:02;;;;;;;8.13;1.38;;;;;;;28.97;37.77;96494.97;10370890;28;20240;-53
2022/06/15 09:23:10;;;;;;;3.10;1.27;;;;;;;30.04;35.52;96451.94;10369852;28;20182;-56
2022/06/15 09:28:23;;;;;;;7.97;1.27;;;;;;;29.43;37.13;96481.16;10371024;28;20206;-58
2022/06/15 09:33:29;;;;;;;2.80;1.52;;;;;;;28.96;36.64;96442.94;10370480;28;20778;-56
2022/06/15 09:38:31;;;;;;;5.55;1.65;;;;;;;28.11;37.38;96436.66;10370089;28;20244;-59
2022/06/15 09:44:08;;;;;;;6.22;1.38;;;;;;;27.73;40.22;96498.16;10370954;28;20239;-57
2022/06/15 09:49:34;;;;;;;3.70;1.50;;;;;;;29.05;36.66;96455.81;10365351;28;20251;-59
2022/06/15 09:54:43;;;;;;;7.95;1.20;;;;;;;29.29;37.63;96483.69;10340382;28;20708;-59
2022/06/15 09:59:43;;;;;;;3.03;1.17;;;;;;;27.61;40.84;96524.53;10366988;28;20205;-58
2022/06/15 10:04:44;;;;;;;4.65;1.67;;;;;;;28.61;35.88;96417.06;10362881;28;20212;-56
2022/06/15 10:09:50;;;;;;;3.67;1.50;;;;;;;27.46;39.00;96455.41;10367701;28;20213;-59
2022/06/15 10:14:51;;;;;;;2.60;1.20;;;;;;;26.80;38.87;96443.56;10362750;28;20213;-53
2022/06/15 10:19:53;;;;;;;5.00;1.48;;;;;;;27.62;39.24;96482.31;10356192;28;20707;-58
2022/06/15 10:24:56;;;;;;;5.80;1.83;;;;;;;29.76;34.23;96413.88;10367851;28;20678;-60
2022/06/15 10:30:07;;;;;;;6.47;1.30;;;;;;;29.65;35.75;96437.50;10369673;28;20205;-60
2022/06/15 10:35:14;;;;;;;4.80;1.58;;;;;;;29.87;34.02;96399.19;10367904;28;20335;-60
2022/06/15 10:40:17;;;;;;;3.20;1.23;;;;;;;30.68;33.88;96420.03;10368784;28;20895;-59
2022/06/15 10:45:27;;;;;;;4.53;1.20;;;;;;;28.53;36.56;96433.75;10369063;28;20193;-59
2022/06/15 10:50:34;;;;;;;5.10;1.10;;;;;;;31.05;34.33;96450.06;10367923;28;20625;-56
2022/06/15 11:06:37;;;;;;;4.07;1.38;;;;;;;32.47;30.08;96333.81;10368464;28;20185;-56
2022/06/15 11:11:39;;;;;;;5.05;1.27;;;;;;;32.17;29.99;96319.06;10368040;28;20255;-60
2022/06/15 11:22:15;;;;;;;8.10;1.45;;;;;;;30.24;33.97;96370.59;10367932;28;20240;-56
2022/06/15 11:27:39;;;;;;;4.38;1.27;;;;;;;32.41;30.48;96345.09;10367006;28;20204;-58
2022/06/15 11:32:48;;;;;;;6.60;1.35;;;;;;;31.14;33.92;96405.00;10366819;28;20302;-57
2022/06/15 11:38:02;;;;;;;5.18;1.50;;;;;;;30.82;34.55;96428.19;10366594;28;20220;-60
2022/06/15 11:43:11;;;;;;;2.20;1.17;;;;;;;31.40;34.24;96440.53;10368073;28;20204;-57
2022/06/15 11:48:28;;;;;;;5.45;1.60;;;;;;;31.52;32.81;96385.91;10373665;28;20270;-61
2022/06/15 11:53:47;;;;;;;2.65;0.90;;;;;;;32.88;30.28;96351.03;10374494;28;20224;-59
2022/06/15 11:58:59;;;;;;;1.52;1.40;;;;;;;32.50;31.41;96356.81;10374086;28;20271;-61
2022/06/15 12:04:25;;;;;;;3.80;1.10;;;;;;;33.03;29.26;96309.13;10374257;28;20196;-61
2022/06/15 12:09:35;;;;;;;3.03;1.33;;;;;;;32.83;29.95;96327.53;10373633;28;20767;-61
2022/06/15 12:14:40;;;;;;;4.60;1.38;;;;;;;33.02;29.58;96311.06;10374603;28;20236;-61
2022/06/15 12:20:00;;;;;;;2.30;1.15;;;;;;;33.47;30.28;96347.38;10372406;28;20209;-61
2022/06/15 12:25:03;;;;;;;3.65;1.60;;;;;;;34.23;29.06;96354.44;10374673;28;20947;-60
2022/06/15 12:30:22;;;;;;;4.68;1.45;;;;;;;34.28;28.58;96346.16;10357870;28;20618;-61
2022/06/15 12:35:48;;;;;;;2.83;1.33;;;;;;;33.19;29.02;96294.06;10369754;28;20262;-61
2022/06/15 12:41:01;;;;;;;3.67;1.45;;;;;;;34.09;28.98;96349.97;10356910;28;20243;-62
2022/06/15 12:46:10;;;;;;;6.22;1.63;;;;;;;33.02;29.75;96321.13;10350866;28;20292;-60
2022/06/15 12:51:32;;;;;;;5.28;1.40;;;;;;;34.76;27.94;96334.31;10370179;28;20221;-59
2022/06/15 12:57:07;;;;;;;3.58;1.30;;;;;;;33.34;27.78;96260.28;10366633;28;20766;-61
2022/06/15 13:02:14;;;;;;;2.90;1.30;;;;;;;32.99;29.37;96281.84;10349640;28;20595;-61
2022/06/15 13:07:28;;;;;;;4.45;1.30;;;;;;;31.71;30.03;96249.63;10354741;28;20197;-60
2022/06/15 13:12:51;;;;;;;2.20;1.40;;;;;;;32.09;31.21;96308.94;10372453;28;20278;-60
2022/06/15 13:18:09;;;;;;;4.13;1.20;;;;;;;32.94;28.11;96251.31;10371572;28;20216;-60
2022/06/15 13:23:22;;;;;;;4.07;1.30;;;;;;;31.76;28.78;96200.75;10371340;28;20201;-60
2022/06/15 13:28:31;;;;;;;2.55;1.55;;;;;;;32.48;29.41;96285.81;10371926;28;20220;-61
2022/06/15 13:33:48;;;;;;;2.67;1.50;;;;;;;31.23;29.59;96208.34;10353021;28;20882;-59
2022/06/15 13:38:50;;;;;;;3.05;1.38;;;;;;;32.88;29.26;96288.63;10370179;28;20240;-61
2022/06/15 13:43:51;;;;;;;3.60;1.40;;;;;;;30.26;32.46;96267.63;10371247;28;20201;-60
2022/06/15 13:48:53;;;;;;;6.20;1.50;;;;;;;32.60;28.87;96264.34;10370599;28;20220;-60
2022/06/15 13:54:13;;;;;;;6.35;1.75;;;;;;;33.60;29.47;96322.03;10370441;28;20290;-59
2022/06/15 13:59:42;;;;;;;4.18;1.73;;;;;;;35.66;28.50;96372.66;10351586;28;20216;-58
2022/06/15 14:04:55;;;;;;;4.22;1.60;;;;;;;35.08;28.05;96318.53;10350153;28;20204;-61
2022/06/15 14:10:20;;;;;;;4.22;1.55;;;;;;;36.57;26.03;96306.78;10369110;28;20981;-62
2022/06/15 14:15:20;;;;;;;5.03;1.60;;;;;;;37.21;26.03;96327.34;10351717;28;20225;-61
2022/06/15 14:20:26;;;;;;;6.30;1.55;;;;;;;35.17;27.37;96255.88;10369834;28;20230;-61
2022/06/15 14:25:26;;;;;;;2.95;1.38;;;;;;;35.85;26.66;96276.88;10369457;28;20944;-61
2022/06/15 14:30:30;;;;;;;4.15;1.20;;;;;;;34.41;28.58;96263.63;10369159;28;20299;-61
2022/06/15 14:35:31;;;;;;;5.78;1.50;;;;;;;32.02;31.54;96265.97;10368910;28;20228;-60
2022/06/15 14:40:38;;;;;;;6.63;1.60;;;;;;;31.55;31.40;96259.97;10368231;28;20233;-58
2022/06/15 14:45:42;;;;;;;1.92;1.30;;;;;;;31.12;31.59;96251.06;10368792;28;20255;-59
2022/06/15 14:50:43;;;;;;;4.03;1.77;;;;;;;29.18;33.89;96258.25;10368850;28;20211;-57
2022/06/15 14:55:44;;;;;;;4.53;1.80;;;;;;;30.17;32.17;96242.38;10367911;28;20217;-58
2022/06/15 15:00:46;;;;;;;2.90;1.67;;;;;;;31.23;30.97;96245.44;10368761;28;20343;-59
2022/06/15 15:05:46;;;;;;;4.43;1.60;;;;;;;31.20;30.75;96232.53;10368605;28;20247;-58
2022/06/15 15:10:56;;;;;;;4.37;1.80;;;;;;;34.22;29.32;96331.09;10393278;28;20748;-59
2022/06/15 15:16:01;;;;;;;3.88;1.58;;;;;;;34.25;29.67;96301.38;10409168;28;20524;-59
2022/06/15 15:21:22;;;;;;;2.47;1.50;;;;;;;35.42;28.02;96316.03;10412600;28;20223;-60
2022/06/15 15:26:25;;;;;;;2.58;1.48;;;;;;;36.06;27.08;96296.75;10417700;28;20180;-60
2022/06/15 15:42:21;;;;;;;1.67;1.20;;;;;;;31.90;30.38;96177.13;10415912;28;20244;-56
2022/06/15 15:47:22;;;;;;;2.78;1.70;;;;;;;34.20;29.59;96290.63;10416212;28;20204;-58
2022/06/15 15:52:22;;;;;;;6.57;1.57;;;;;;;34.99;27.56;96244.25;10415453;28;20263;-60
2022/06/15 15:57:23;;;;;;;5.80;1.60;;;;;;;34.19;29.18;96261.03;10416281;28;20475;-58
2022/06/15 16:02:28;;;;;;;6.05;1.60;;;;;;;34.24;28.73;96252.72;10415212;28;20212;-58
2022/06/15 16:07:29;;;;;;;5.22;2.05;;;;;;;31.92;32.91;96266.22;10355369;28;20192;-58
2022/06/15 16:12:31;;;;;;;5.47;1.70;;;;;;;31.23;32.96;96262.47;10384404;28;20664;-58
2022/06/15 16:17:32;;;;;;;2.83;1.73;;;;;;;29.78;35.07;96279.38;10365513;28;20192;-58
2022/06/15 16:22:34;;;;;;;5.13;1.77;;;;;;;30.34;34.31;96272.38;10374346;28;20560;-54
2022/06/15 16:27:35;;;;;;;5.07;1.80;;;;;;;30.85;33.81;96288.88;10373931;28;20208;-57
2022/06/15 16:32:35;;;;;;;5.78;1.65;;;;;;;29.30;36.14;96307.22;10373592;28;20209;-57
2022/06/15 16:37:36;;;;;;;3.47;1.83;;;;;;;28.62;37.90;96343.16;10374976;28;20193;-58
2022/06/15 16:42:36;;;;;;;3.88;2.10;;;;;;;28.93;36.45;96315.94;10376231;28;20233;-57
2022/06/15 16:47:37;;;;;;;4.93;2.13;;;;;;;28.27;37.22;96291.13;10374611;28;20201;-59
2022/06/15 16:52:41;;;;;;;3.85;2.03;;;;;;;28.25;38.17;96344.47;10371791;28;20199;-56
2022/06/15 16:57:41;;;;;;;2.78;2.00;;;;;;;27.63;38.39;96308.97;10373495;28;20200;-54
2022/06/15 17:02:42;;;;;;;8.70;1.80;;;;;;;27.14;39.24;96324.72;10372940;28;20248;-57
2022/06/15 17:07:42;;;;;;;5.35;1.80;;;;;;;27.23;39.13;96327.66;10373144;28;20660;-55
2022/06/15 17:12:44;;;;;;;4.05;2.20;;;;;;;26.79;41.05;96371.25;10371808;28;20193;-55
2022/06/15 17:17:46;;;;;;;6.90;2.47;;;;;;;26.41;41.40;96366.09;10369688;28;20182;-54
2022/06/15 17:22:47;;;;;;;3.05;1.88;;;;;;;26.54;39.99;96337.91;10370015;28;20204;-57
2022/06/15 17:27:48;;;;;;;5.88;1.83;;;;;;;26.65;39.82;96339.53;10369460;28;20204;-55
2022/06/15 17:32:48;;;;;;;5.38;2.08;;;;;;;26.71;40.97;96367.22;10369581;28;20200;-57
2022/06/15 17:37:48;;;;;;;6.20;2.20;;;;;;;26.09;42.04;96383.22;10368232;28;20197;-57
2022/06/15 17:42:49;;;;;;;3.25;2.15;;;;;;;25.32;42.36;96355.22;10368187;28;20566;-56
2022/06/15 17:47:49;;;;;;;3.60;1.70;;;;;;;24.98;43.62;96399.22;10371530;28;20224;-56
2022/06/15 17:52:49;;;;;;;8.98;2.13;;;;;;;24.59;43.53;96377.19;10371102;28;20197;-56
2022/06/15 17:57:50;;;;;;;7.35;2.30;;;;;;;24.76;44.14;96412.69;10371413;28;20241;-55
2022/06/15 18:02:50;;;;;;;5.45;2.28;;;;;;;24.94;44.26;96427.56;10371276;28;20224;-57
2022/06/15 18:07:54;;;;;;;8.73;2.05;;;;;;;24.77;44.88;96443.78;10370537;28;20217;-59
2022/06/15 18:12:54;;;;;;;3.95;2.00;;;;;;;24.62;45.92;96475.78;10370987;28;20211;-59
2022/06/15 18:17:55;;;;;;;6.05;1.98;;;;;;;24.54;46.56;96482.34;10369595;28;20213;-58
2022/06/15 18:22:55;;;;;;;4.72;1.98;;;;;;;24.19;48.14;96523.72;10353149;28;20213;-57
2022/06/15 18:27:56;;;;;;;4.50;2.17;;;;;;;23.85;48.92;96532.63;10370040;28;20240;-58
2022/06/15 18:32:57;;;;;;;3.25;2.05;;;;;;;23.57;49.43;96530.03;10379362;28;20635;-56
2022/06/15 18:37:58;;;;;;;9.27;3.95;;;;;;;23.31;50.76;96561.72;10368296;28;20336;-58
2022/06/15 18:42:59;;;;;;;6.50;3.88;;;;;;;22.30;53.47;96599.50;10368702;28;20248;-57
2022/06/15 18:47:59;;;;;;;4.78;2.45;;;;;;;21.77;55.67;96635.94;10368165;28;20284;-57
2022/06/15 18:53:03;;;;;;;9.20;2.55;;;;;;;21.00;58.02;96659.50;10368066;28;20660;-55
2022/06/15 18:58:06;;;;;;;11.95;2.28;;;;;;;20.93;58.83;96666.75;10350822;28;20205;-50
2022/06/15 19:03:08;;;;;;;6.45;2.70;;;;;;;20.22;60.81;96671.59;10368706;28;20807;-52
2022/06/15 19:08:10;;;;;;;4.82;2.58;;;;;;;20.27;62.00;96679.72;10367685;28;20300;-52
2022/06/15 19:13:16;;;;;;;3.63;2.50;;;;;;;20.08;61.39;96644.31;10383970;28;20270;-55
2022/06/15 19:18:19;;;;;;;7.38;2.70;;;;;;;19.79;62.57;96659.06;10367890;28;20669;-52
2022/06/15 19:23:23;;;;;;;4.80;3.25;;;;;;;19.40;64.67;96679.53;10367502;28;20676;-56
2022/06/15 19:28:24;;;;;;;6.18;2.72;;;;;;;18.99;66.73;96696.69;10367521;28;20726;-54
2022/06/15 19:33:25;;;;;;;5.88;3.17;;;;;;;18.64;68.41;96704.94;10368222;28;20251;-50
2022/06/15 19:38:26;;;;;;;7.93;3.20;;;;;;;18.27;70.58;96701.91;10368419;28;20731;-50
2022/06/15 19:43:30;;;;;;;6.30;3.35;;;;;;;18.00;71.94;96689.50;10341946;28;20226;-51
2022/06/15 19:48:31;;;;;;;6.32;3.08;;;;;;;17.90;72.84;96693.56;10327848;28;20214;-53
2022/06/15 19:53:32;;;;;;;4.65;3.17;;;;;;;17.63;73.73;96694.34;10338704;28;20190;-49
2022/06/15 19:58:32;;;;;;;7.60;3.45;;;;;;;17.43;75.29;96690.84;10328809;28;20352;-50
2022/06/15 20:03:33;;;;;;;7.13;3.17;;;;;;;17.09;77.21;96698.69;10345014;28;20216;-49
2022/06/15 20:08:33;;;;;;;6.70;3.03;;;;;;;16.77;78.35;96700.97;10343324;28;20229;-48
2022/06/15 20:13:34;;;;;;;12.18;3.38;;;;;;;16.84;79.23;96705.47;10334054;28;20315;-49
2022/06/15 20:18:34;;;;;;;4.20;3.47;;;;;;;16.79;79.04;96692.00;10334599;28;20214;-50
2022/06/15 20:23:38;;;;;;;12.45;3.47;;;;;;;16.75;78.80;96696.88;10333734;28;20320;-53
2022/06/15 20:28:42;;;;;;;8.13;3.33;;;;;;;16.69;79.11;96700.28;10333968;28;20218;-52
2022/06/15 20:33:43;;;;;;;5.38;3.58;;;;;;;16.52;79.91;96707.72;10316049;28;20345;-49
2022/06/15 20:38:43;;;;;;;7.95;3.38;;;;;;;16.53;80.24;96704.06;10333334;28;20330;-49
2022/06/15 20:43:47;;;;;;;6.88;3.53;;;;;;;16.34;81.21;96711.69;10333282;28;20226;-49
2022/06/15 20:48:48;;;;;;;7.03;4.07;;;;;;;16.10;81.96;96709.47;10333483;28;20248;-52
2022/06/15 20:53:49;;;;;;;6.75;3.53;;;;;;;16.19;81.61;96709.13;10333684;28;20672;-49
2022/06/15 20:58:49;;;;;;;6.25;3.50;;;;;;;16.09;82.32;96718.41;10333045;28;20393;-49
2022/06/15 21:03:49;;;;;;;6.07;3.58;;;;;;;15.98;82.38;96719.75;10333105;28;20226;-51
2022/06/15 21:08:50;;;;;;;5.78;3.25;;;;;;;15.88;83.07;96714.78;10332304;28;20272;-48
2022/06/15 21:19:14;;;;;;;5.20;3.38;;;;;;;15.66;83.54;96714.75;10298596;28;20237;-49
2022/06/15 21:24:14;;;;;;;7.07;3.55;;;;;;;15.53;84.64;96714.63;10332018;28;20244;-53
2022/06/15 21:29:15;;;;;;;8.60;3.50;;;;;;;15.39;85.57;96710.19;10331877;28;20640;-49
2022/06/15 21:34:15;;;;;;;3.67;3.17;;;;;;;15.26;86.44;96718.81;10332425;28;20602;-48
2022/06/15 21:39:15;;;;;;;5.43;3.50;;;;;;;15.21;86.73;96721.19;10332254;28;20695;-49
2022/06/15 21:44:16;;;;;;;6.72;4.25;;;;;;;15.15;87.09;96709.56;10331885;28;20225;-49
2022/06/15 21:49:17;;;;;;;5.10;3.33;;;;;;;15.09;87.38;96711.09;10332075;28;20214;-49
2022/06/15 21:54:17;;;;;;;7.07;3.45;;;;;;;14.98;87.98;96706.31;10314305;28;20219;-49
2022/06/15 21:59:18;;;;;;;6.07;3.70;;;;;;;14.96;87.75;96701.22;10331400;28;20744;-49
2022/06/15 22:04:18;;;;;;;8.20;3.60;;;;;;;14.83;88.16;96694.97;10331090;28;20692;-49
2022/06/15 22:09:19;;;;;;;7.72;3.78;;;;;;;14.80;88.50;96693.50;10330975;28;20245;-50
2022/06/15 22:14:19;;;;;;;5.10;3.60;;;;;;;14.68;89.28;96690.50;10330756;28;20216;-51
2022/06/15 22:19:20;;;;;;;4.55;3.83;;;;;;;14.65;89.61;96690.06;10330104;28;20226;-49
2022/06/15 22:24:20;;;;;;;3.85;3.45;;;;;;;14.39;90.93;96699.19;10330602;28;20364;-53
2022/06/15 22:29:20;;;;;;;8.23;4.15;;;;;;;14.36;91.33;96695.09;10329444;28;20248;-53
2022/06/15 22:34:21;;;;;;;5.85;3.80;;;;;;;14.22;92.87;96691.44;10330518;28;20197;-48
2022/06/15 22:39:21;;;;;;;5.60;4.55;;;;;;;14.11;93.42;96691.91;10329493;28;20308;-52
2022/06/15 22:44:21;;;;;;;7.05;4.00;;;;;;;14.04;94.88;96677.81;10330095;28;20309;-54
2022/06/15 22:54:42;;;;;;;8.48;3.75;;;;;;;13.97;95.08;96661.09;10329727;28;20201;-55
2022/06/15 22:59:42;;;;;;;10.13;3.80;;;;;;;13.84;96.03;96656.41;10329167;28;20216;-49
2022/06/15 23:04:42;;;;;;;6.30;4.15;;;;;;;13.77;96.48;96660.75;10329474;28;20250;-54
2022/06/15 23:09:43;;;;;;;9.57;4.00;;;;;;;13.72;97.06;96653.38;10329428;28;20241;-56
2022/06/15 23:14:43;;;;;;;5.95;3.88;;;;;;;13.58;98.31;96652.34;10329202;28;20252;-53
2022/06/15 23:19:43;;;;;;;7.68;4.18;;;;;;;13.45;99.44;96649.50;10328668;28;20225;-54
2022/06/15 23:24:44;;;;;;;4.32;3.55;;;;;;;13.37;100.00;96645.13;10328728;28;20311;-56
2022/06/15 23:29:44;;;;;;;6.30;3.60;;;;;;;13.31;100.00;96643.97;10329083;28;20226;-51
2022/06/15 23:34:44;;;;;;;4.72;3.60;;;;;;;13.22;100.00;96642.41;10328565;28;20190;-53
2022/06/15 23:39:46;;;;;;;6.78;4.50;;;;;;;13.09;100.00;96639.53;10329053;28;20283;-56
2022/06/15 23:44:49;;;;;;;8.00;4.35;;;;;;;12.97;100.00;96628.56;10336641;28;20214;-55
2022/06/15 23:49:56;;;;;;;5.32;4.75;;;;;;;12.87;100.00;96628.00;10336557;28;20765;-54
2022/06/15 23:54:57;;;;;;;9.88;4.30;;;;;;;12.78;100.00;96622.75;10336430;28;20241;-51
2022/06/15 23:59:57;;;;;;;7.68;3.80;;;;;;;12.81;100.00;96611.91;10335646;28;20562;-56
